createdAt,value
2022-11-05T00:00:59.618Z,3.35
2022-11-05T00:03:44.393Z,3.39
2022-11-05T00:06:29.798Z,3.48
2022-11-05T00:09:15.346Z,3.47
2022-11-05T00:12:00.571Z,3.47
2022-11-05T00:14:45.721Z,3.44
2022-11-05T00:17:12.426Z,3.50
2022-11-05T00:19:38.980Z,3.41
2022-11-05T00:22:24.098Z,3.28
2022-11-05T00:25:09.564Z,3.26
2022-11-05T00:27:36.322Z,3.05
2022-11-05T00:30:02.882Z,2.88
2022-11-05T00:32:29.370Z,2.84
2022-11-05T00:34:55.828Z,2.89
2022-11-05T00:37:22.312Z,2.80
2022-11-05T00:39:48.789Z,2.82
2022-11-05T00:42:33.906Z,2.93
2022-11-05T00:45:03.118Z,2.87
2022-11-05T00:47:49.990Z,3.03
2022-11-05T00:50:17.839Z,2.99
2022-11-05T00:52:56.601Z,2.92
2022-11-05T00:55:30.054Z,2.75
2022-11-05T00:57:57.616Z,2.66
2022-11-05T01:00:27.175Z,2.41
2022-11-05T01:02:54.059Z,2.26
2022-11-05T01:05:20.630Z,2.07
2022-11-05T01:07:47.423Z,2.16
2022-11-05T01:10:13.993Z,2.09
2022-11-05T01:12:40.512Z,2.01
2022-11-05T01:15:07.487Z,1.90
2022-11-05T01:17:34.464Z,1.90
2022-11-05T01:20:01.393Z,1.81
2022-11-05T01:22:27.893Z,1.77
2022-11-05T01:24:54.537Z,1.76
2022-11-05T01:27:21.056Z,1.70
2022-11-05T01:29:48.529Z,1.76
2022-11-05T01:32:15.129Z,1.79
2022-11-05T01:34:41.605Z,1.63
2022-11-05T01:37:08.278Z,1.68
2022-11-05T01:39:34.745Z,1.61
2022-11-05T01:42:01.419Z,1.69
2022-11-05T01:44:49.804Z,1.78
2022-11-05T01:47:36.217Z,1.86
2022-11-05T01:50:12.814Z,2.10
2022-11-05T01:52:39.554Z,2.22
2022-11-05T01:55:10.035Z,2.33
2022-11-05T01:57:36.658Z,2.38
2022-11-05T02:00:04.129Z,2.41
2022-11-05T02:02:31.277Z,2.54
2022-11-05T02:05:02.144Z,2.54
2022-11-05T02:07:30.299Z,2.52
2022-11-05T02:10:06.453Z,2.62
2022-11-05T02:12:34.300Z,2.65
2022-11-05T02:15:00.803Z,2.66
2022-11-05T02:17:42.476Z,2.71
2022-11-05T02:20:19.037Z,2.77
2022-11-05T02:23:10.326Z,2.81
2022-11-05T02:26:07.902Z,2.77
2022-11-05T02:29:09.782Z,2.84
2022-11-05T02:31:40.845Z,3.07
2022-11-05T02:34:39.633Z,3.14
2022-11-05T02:37:12.123Z,3.16
2022-11-05T02:39:50.714Z,3.16
2022-11-05T02:42:48.573Z,3.21
2022-11-05T02:45:38.273Z,3.18
2022-11-05T02:48:20.124Z,3.17
2022-11-05T02:50:59.081Z,3.24
2022-11-05T02:53:34.282Z,3.27
2022-11-05T02:56:05.730Z,3.22
2022-11-05T02:58:34.866Z,3.18
2022-11-05T03:01:06.706Z,3.24
2022-11-05T03:03:45.358Z,3.26
2022-11-05T03:06:11.806Z,3.27
2022-11-05T03:08:56.093Z,3.29
2022-11-05T03:11:26.932Z,3.39
2022-11-05T03:14:20.679Z,3.54
2022-11-05T03:16:57.909Z,3.53
2022-11-05T03:19:47.926Z,3.54
2022-11-05T03:22:22.942Z,3.58
2022-11-05T03:24:55.293Z,3.71
2022-11-05T03:27:30.355Z,3.67
2022-11-05T03:30:03.349Z,3.70
2022-11-05T03:32:34.788Z,3.66
2022-11-05T03:35:15.188Z,3.75
2022-11-05T03:37:43.858Z,3.74
2022-11-05T03:40:12.657Z,3.74
2022-11-05T03:42:45.183Z,3.73
2022-11-05T03:45:19.167Z,3.73
2022-11-05T03:47:47.738Z,3.73
2022-11-05T03:50:28.947Z,3.71
2022-11-05T03:53:19.796Z,3.77
2022-11-05T03:55:52.854Z,3.80
2022-11-05T03:58:21.482Z,3.79
2022-11-05T04:00:49.587Z,3.80
2022-11-05T04:03:16.456Z,3.89
2022-11-05T04:05:43.327Z,3.83
2022-11-05T04:08:28.700Z,3.79
2022-11-05T04:11:13.355Z,3.86
2022-11-05T04:13:39.811Z,3.88
2022-11-05T04:16:24.850Z,3.91
2022-11-05T04:18:51.291Z,3.99
2022-11-05T04:21:36.243Z,3.96
2022-11-05T04:24:08.513Z,3.99
2022-11-05T04:26:40.713Z,3.96
2022-11-05T04:29:27.063Z,3.96
2022-11-05T04:31:54.364Z,4.09
2022-11-05T04:34:22.184Z,4.16
2022-11-05T04:36:49.958Z,4.20
2022-11-05T04:39:20.539Z,4.31
2022-11-05T04:41:48.215Z,4.20
2022-11-05T04:44:15.998Z,4.20
2022-11-05T04:46:42.811Z,4.19
2022-11-05T04:49:09.267Z,4.23
2022-11-05T04:51:35.749Z,4.15
2022-11-05T04:54:02.335Z,4.23
2022-11-05T04:56:28.886Z,4.14
2022-11-05T04:58:55.408Z,4.07
2022-11-05T05:01:23.552Z,4.05
2022-11-05T05:03:51.697Z,4.06
2022-11-05T05:06:19.092Z,4.05
2022-11-05T05:08:49.822Z,4.12
2022-11-05T05:11:19.644Z,4.14
2022-11-05T05:13:46.462Z,4.20
2022-11-05T05:16:25.395Z,4.23
2022-11-05T05:18:53.282Z,4.23
2022-11-05T05:21:40.551Z,4.25
2022-11-05T05:24:08.830Z,4.33
2022-11-05T05:26:40.700Z,4.25
2022-11-05T05:29:07.570Z,4.24
2022-11-05T05:31:34.534Z,4.28
2022-11-05T05:34:01.179Z,4.18
2022-11-05T05:36:28.191Z,4.14
2022-11-05T05:38:54.795Z,4.18
2022-11-05T05:41:21.570Z,4.23
2022-11-05T05:43:48.152Z,4.27
2022-11-05T05:46:15.815Z,4.27
2022-11-05T05:48:43.248Z,4.34
2022-11-05T05:51:11.669Z,4.40
2022-11-05T05:53:38.859Z,4.40
2022-11-05T05:56:06.117Z,4.39
2022-11-05T05:58:39.324Z,4.38
2022-11-05T06:01:10.988Z,4.40
2022-11-05T06:03:40.893Z,4.40
2022-11-05T06:06:10.197Z,4.40
2022-11-05T06:08:36.867Z,4.45
2022-11-05T06:11:04.394Z,5.22
2022-11-05T06:13:31.742Z,5.91
2022-11-05T06:16:02.688Z,6.02
2022-11-05T06:18:30.047Z,5.45
2022-11-05T06:21:11.124Z,5.09
2022-11-05T06:23:39.034Z,4.90
2022-11-05T06:26:08.490Z,4.78
2022-11-05T06:28:35.265Z,4.72
2022-11-05T06:31:02.184Z,4.71
2022-11-05T06:33:28.950Z,4.72
2022-11-05T06:35:59.094Z,4.70
2022-11-05T06:38:25.484Z,4.70
2022-11-05T06:40:51.993Z,4.77
2022-11-05T06:43:18.531Z,4.90
2022-11-05T06:45:45.026Z,4.93
2022-11-05T06:48:11.466Z,5.05
2022-11-05T06:50:38.163Z,5.13
2022-11-05T06:53:05.589Z,5.12
2022-11-05T06:55:32.255Z,5.19
2022-11-05T06:57:58.986Z,5.27
2022-11-05T07:00:26.033Z,5.34
2022-11-05T07:02:52.631Z,5.37
2022-11-05T07:05:19.127Z,5.42
2022-11-05T07:07:46.030Z,5.46
2022-11-05T07:10:15.195Z,5.60
2022-11-05T07:12:42.021Z,5.68
2022-11-05T07:15:10.351Z,5.66
2022-11-05T07:17:36.874Z,5.75
2022-11-05T07:20:04.637Z,5.79
2022-11-05T07:22:31.155Z,5.96
2022-11-05T07:24:57.817Z,6.00
2022-11-05T07:27:24.317Z,6.07
2022-11-05T07:29:50.819Z,6.18
2022-11-05T07:32:17.360Z,6.33
2022-11-05T07:34:43.838Z,6.46
2022-11-05T07:37:10.525Z,6.59
2022-11-05T07:39:37.025Z,6.56
2022-11-05T07:42:03.682Z,6.55
2022-11-05T07:44:30.177Z,6.54
2022-11-05T07:46:56.667Z,6.50
2022-11-05T07:49:23.898Z,6.59
2022-11-05T07:51:50.457Z,6.73
2022-11-05T07:54:17.112Z,6.85
2022-11-05T07:56:43.628Z,6.99
2022-11-05T07:59:10.121Z,7.13
2022-11-05T08:01:36.798Z,7.37
2022-11-05T08:04:03.499Z,7.65
2022-11-05T08:06:29.987Z,7.95
2022-11-05T08:08:56.478Z,8.03
2022-11-05T08:11:22.991Z,8.25
2022-11-05T08:13:49.457Z,8.55
2022-11-05T08:16:16.027Z,8.64
2022-11-05T08:18:42.511Z,8.79
2022-11-05T08:21:09.558Z,8.80
2022-11-05T08:23:36.121Z,8.82
2022-11-05T08:26:03.848Z,8.89
2022-11-05T08:28:30.397Z,8.64
2022-11-05T08:30:57.604Z,8.63
2022-11-05T08:33:25.274Z,8.51
2022-11-05T08:35:51.802Z,8.38
2022-11-05T08:38:20.002Z,8.36
2022-11-05T08:40:55.046Z,8.08
2022-11-05T08:43:21.743Z,8.28
2022-11-05T08:45:48.239Z,8.19
2022-11-05T08:48:17.106Z,8.25
2022-11-05T08:50:44.887Z,8.45
2022-11-05T08:53:12.286Z,8.59
2022-11-05T08:55:39.115Z,8.70
2022-11-05T08:58:10.686Z,8.78
2022-11-05T09:00:37.578Z,8.91
2022-11-05T09:03:05.791Z,8.93
2022-11-05T09:05:38.112Z,9.01
2022-11-05T09:08:12.658Z,9.00
2022-11-05T09:10:40.305Z,8.99
2022-11-05T09:13:07.142Z,8.93
2022-11-05T09:15:35.495Z,9.05
2022-11-05T09:18:03.259Z,9.28
2022-11-05T09:20:29.954Z,9.21
2022-11-05T09:22:56.472Z,9.15
2022-11-05T09:25:22.968Z,8.99
2022-11-05T09:27:49.530Z,9.05
2022-11-05T09:30:16.393Z,9.11
2022-11-05T09:32:42.859Z,9.39
2022-11-05T09:35:09.964Z,9.23
2022-11-05T09:37:37.363Z,9.27
2022-11-05T09:40:04.564Z,9.16
2022-11-05T09:42:37.984Z,9.07
2022-11-05T09:45:16.897Z,9.03
2022-11-05T09:47:49.511Z,9.16
2022-11-05T09:50:35.543Z,9.10
2022-11-05T09:53:03.940Z,8.93
2022-11-05T09:55:37.286Z,8.94
2022-11-05T09:58:13.613Z,9.07
2022-11-05T10:00:40.490Z,8.72
2022-11-05T10:03:12.423Z,8.72
2022-11-05T10:05:40.587Z,8.63
2022-11-05T10:08:23.659Z,8.65
2022-11-05T10:10:54.922Z,8.62
2022-11-05T10:13:42.261Z,8.59
2022-11-05T10:16:26.123Z,8.40
2022-11-05T10:19:09.739Z,8.48
2022-11-05T10:22:04.845Z,8.78
2022-11-05T10:24:24.464Z,9.26
2022-11-05T10:26:53.081Z,9.21
2022-11-05T10:29:29.557Z,9.45
2022-11-05T10:32:01.076Z,9.58
2022-11-05T10:34:32.146Z,9.39
2022-11-05T10:36:59.112Z,9.45
2022-11-05T10:39:27.836Z,9.58
2022-11-05T10:41:54.342Z,9.69
2022-11-05T10:44:36.087Z,9.85
2022-11-05T10:47:09.030Z,10.33
2022-11-05T10:49:41.410Z,10.20
2022-11-05T10:52:35.876Z,10.30
2022-11-05T10:55:30.056Z,10.19
2022-11-05T10:58:29.006Z,10.06
2022-11-05T11:00:55.547Z,10.09
2022-11-05T11:03:46.903Z,9.77
2022-11-05T11:06:21.892Z,9.47
2022-11-05T11:08:50.320Z,9.42
2022-11-05T11:11:46.113Z,9.57
2022-11-05T11:14:12.575Z,9.86
2022-11-05T11:16:44.331Z,9.71
2022-11-05T11:19:32.016Z,9.71
2022-11-05T11:22:14.077Z,9.78
2022-11-05T11:24:48.194Z,9.78
2022-11-05T11:27:22.566Z,9.85
2022-11-05T11:29:55.030Z,9.94
2022-11-05T11:32:21.817Z,10.19
2022-11-05T11:34:53.956Z,10.31
2022-11-05T11:37:28.524Z,10.04
2022-11-05T11:39:59.701Z,9.73
2022-11-05T11:42:34.118Z,9.66
2022-11-05T11:45:06.293Z,9.83
2022-11-05T11:47:33.587Z,9.71
2022-11-05T11:50:01.671Z,9.46
2022-11-05T11:52:32.293Z,9.44
2022-11-05T11:55:13.712Z,9.41
2022-11-05T11:57:49.679Z,9.31
2022-11-05T12:00:18.063Z,9.46
2022-11-05T12:03:12.134Z,9.72
2022-11-05T12:06:11.114Z,9.83
2022-11-05T12:09:06.697Z,9.73
2022-11-05T12:11:43.777Z,9.76
2022-11-05T12:14:26.920Z,9.53
2022-11-05T12:17:12.947Z,9.40
2022-11-05T12:20:02.048Z,9.74
2022-11-05T12:23:06.127Z,9.57
2022-11-05T12:25:54.425Z,9.98
2022-11-05T12:28:30.095Z,9.85
2022-11-05T12:31:05.555Z,9.72
2022-11-05T12:33:47.173Z,9.98
2022-11-05T12:36:37.044Z,9.93
2022-11-05T12:39:28.481Z,9.92
2022-11-05T12:42:19.022Z,9.95
2022-11-05T12:44:53.156Z,10.04
2022-11-05T12:47:49.204Z,9.88
2022-11-05T12:50:28.007Z,9.81
2022-11-05T12:52:57.467Z,9.81
2022-11-05T12:55:36.979Z,9.54
2022-11-05T12:58:39.191Z,9.43
2022-11-05T13:01:18.213Z,9.21
2022-11-05T13:03:54.738Z,9.71
2022-11-05T13:06:27.629Z,9.71
2022-11-05T13:09:03.010Z,9.33
2022-11-05T13:11:49.550Z,9.26
2022-11-05T13:14:23.060Z,9.22
2022-11-05T13:17:02.297Z,9.26
2022-11-05T13:19:44.544Z,9.19
2022-11-05T13:22:39.956Z,9.40
2022-11-05T13:25:28.631Z,9.48
2022-11-05T13:28:32.842Z,9.72
2022-11-05T13:31:02.336Z,9.87
2022-11-05T13:33:37.917Z,10.16
2022-11-05T13:36:31.643Z,10.33
2022-11-05T13:39:01.404Z,10.36
2022-11-05T13:41:52.654Z,10.31
2022-11-05T13:44:47.557Z,10.51
2022-11-05T13:47:28.237Z,10.56
2022-11-05T13:50:19.591Z,10.79
2022-11-05T13:53:23.594Z,10.53
2022-11-05T13:56:03.165Z,10.29
2022-11-05T13:58:46.611Z,10.17
2022-11-05T14:01:26.751Z,9.93
2022-11-05T14:03:55.476Z,10.11
2022-11-05T14:06:40.094Z,9.87
2022-11-05T14:09:11.909Z,9.79
2022-11-05T14:11:43.167Z,9.58
2022-11-05T14:14:28.884Z,9.62
2022-11-05T14:17:17.263Z,9.58
2022-11-05T14:20:04.667Z,9.48
2022-11-05T14:22:31.097Z,9.65
2022-11-05T14:25:02.620Z,9.89
2022-11-05T14:27:29.090Z,9.93
2022-11-05T14:29:55.932Z,10.08
2022-11-05T14:32:25.359Z,10.05
2022-11-05T14:35:04.969Z,9.98
2022-11-05T14:37:36.953Z,9.74
2022-11-05T14:40:37.080Z,9.70
2022-11-05T14:43:23.938Z,9.42
2022-11-05T14:45:56.736Z,9.32
2022-11-05T14:48:41.002Z,9.33
2022-11-05T14:51:31.636Z,9.04
2022-11-05T14:54:03.370Z,8.92
2022-11-05T14:56:47.181Z,8.90
2022-11-05T14:59:24.787Z,8.80
2022-11-05T15:01:54.471Z,8.71
2022-11-05T15:04:32.510Z,8.62
2022-11-05T15:07:01.850Z,8.62
2022-11-05T15:09:35.278Z,8.49
2022-11-05T15:12:16.586Z,8.43
2022-11-05T15:14:57.432Z,8.43
2022-11-05T15:17:41.311Z,8.32
2022-11-05T15:20:14.364Z,8.30
2022-11-05T15:22:44.623Z,8.11
2022-11-05T15:25:29.387Z,8.09
2022-11-05T15:28:06.400Z,8.05
2022-11-05T15:30:33.498Z,8.05
2022-11-05T15:33:21.452Z,8.02
2022-11-05T15:35:48.212Z,8.00
2022-11-05T15:38:30.670Z,8.00
2022-11-05T15:41:03.978Z,8.03
2022-11-05T15:43:31.078Z,7.95
2022-11-05T15:46:07.285Z,7.94
2022-11-05T15:48:35.925Z,7.92
2022-11-05T15:51:02.635Z,7.87
2022-11-05T15:56:26.813Z,7.88
2022-11-05T15:58:59.404Z,7.86
2022-11-05T16:01:37.873Z,7.78
2022-11-05T16:04:19.065Z,7.77
2022-11-05T16:06:48.883Z,7.74
2022-11-05T16:09:30.432Z,7.72
2022-11-05T16:12:18.295Z,7.75
2022-11-05T16:15:08.010Z,7.73
2022-11-05T16:17:37.491Z,7.77
2022-11-05T16:20:38.717Z,7.73
2022-11-05T16:23:21.745Z,7.74
2022-11-05T16:25:48.405Z,7.73
2022-11-05T16:28:27.193Z,7.73
2022-11-05T16:30:59.711Z,7.70
2022-11-05T16:33:31.793Z,7.69
2022-11-05T16:35:58.363Z,7.63
2022-11-05T16:38:25.083Z,7.55
2022-11-05T16:40:51.573Z,7.52
2022-11-05T16:43:22.314Z,7.49
2022-11-05T16:45:49.258Z,7.47
2022-11-05T16:48:16.497Z,7.47
2022-11-05T16:50:43.425Z,7.48
2022-11-05T16:53:10.123Z,7.41
2022-11-05T16:55:38.644Z,7.42
2022-11-05T16:58:06.421Z,7.40
2022-11-05T17:00:33.377Z,7.36
2022-11-05T17:02:59.944Z,7.33
2022-11-05T17:05:29.913Z,7.37
2022-11-05T17:07:57.287Z,7.34
2022-11-05T17:10:25.478Z,7.32
2022-11-05T17:12:52.230Z,7.31
2022-11-05T17:15:28.257Z,7.41
2022-11-05T17:17:55.254Z,7.25
2022-11-05T17:20:42.388Z,7.20
2022-11-05T17:23:11.300Z,7.19
2022-11-05T17:25:39.372Z,7.23
2022-11-05T17:28:06.832Z,7.19
2022-11-05T17:30:33.353Z,7.14
2022-11-05T17:32:59.932Z,7.14
2022-11-05T17:35:27.122Z,7.09
2022-11-05T17:37:53.635Z,7.11
2022-11-05T17:40:24.865Z,7.12
2022-11-05T17:42:52.641Z,7.03
2022-11-05T17:45:22.042Z,7.06
2022-11-05T17:47:48.864Z,7.02
2022-11-05T17:50:17.398Z,7.03
2022-11-05T17:52:44.539Z,7.04
2022-11-05T17:55:17.641Z,6.89
2022-11-05T17:57:48.417Z,6.86
2022-11-05T18:00:18.284Z,6.87
2022-11-05T18:03:09.622Z,6.80
2022-11-05T18:05:37.807Z,6.82
2022-11-05T18:08:05.142Z,6.77
2022-11-05T18:10:32.739Z,6.80
2022-11-05T18:12:59.284Z,6.84
2022-11-05T18:15:25.793Z,6.84
2022-11-05T18:17:52.322Z,6.85
2022-11-05T18:20:19.730Z,6.80
2022-11-05T18:22:49.714Z,6.79
2022-11-05T18:25:17.410Z,6.76
2022-11-05T18:27:44.320Z,6.74
2022-11-05T18:30:13.950Z,6.72
2022-11-05T18:32:40.527Z,6.72
2022-11-05T18:35:07.440Z,6.73
2022-11-05T18:37:34.013Z,6.74
2022-11-05T18:40:00.509Z,6.81
2022-11-05T18:42:27.021Z,6.85
2022-11-05T18:44:53.714Z,6.84
2022-11-05T18:47:20.439Z,6.87
2022-11-05T18:49:46.984Z,6.80
2022-11-05T18:52:13.714Z,6.81
2022-11-05T18:54:40.277Z,6.82
2022-11-05T18:57:07.077Z,6.77
2022-11-05T18:59:38.819Z,6.78
2022-11-05T19:02:09.036Z,6.70
2022-11-05T19:04:37.081Z,6.67
2022-11-05T19:07:05.403Z,6.70
2022-11-05T19:09:34.360Z,6.66
2022-11-05T19:12:01.487Z,6.62
2022-11-05T19:14:30.518Z,6.63
2022-11-05T19:17:11.133Z,6.60
2022-11-05T19:19:38.320Z,6.55
2022-11-05T19:22:05.566Z,6.52
2022-11-05T19:24:32.072Z,6.52
2022-11-05T19:26:58.536Z,6.48
2022-11-05T19:29:25.049Z,6.48
2022-11-05T19:31:51.544Z,6.46
2022-11-05T19:34:18.079Z,6.41
2022-11-05T19:36:44.858Z,6.39
2022-11-05T19:39:14.148Z,6.36
2022-11-05T19:41:40.978Z,6.38
2022-11-05T19:44:07.954Z,6.45
2022-11-05T19:46:34.565Z,6.50
2022-11-05T19:49:01.540Z,6.53
2022-11-05T19:51:30.484Z,6.58
2022-11-05T19:53:58.144Z,6.52
2022-11-05T19:56:27.593Z,6.53
2022-11-05T19:58:54.645Z,6.53
2022-11-05T20:01:23.186Z,6.58
2022-11-05T20:03:50.417Z,6.53
2022-11-05T20:06:23.543Z,6.51
2022-11-05T20:09:19.869Z,6.53
2022-11-05T20:11:37.755Z,6.53
2022-11-05T20:14:05.416Z,6.43
2022-11-05T20:16:42.819Z,6.37
2022-11-05T20:19:14.076Z,6.43
2022-11-05T20:21:41.464Z,6.39
2022-11-05T20:24:08.415Z,6.33
2022-11-05T20:26:34.921Z,6.28
2022-11-05T20:29:01.546Z,6.27
2022-11-05T20:31:28.127Z,6.29
2022-11-05T20:33:54.666Z,6.32
2022-11-05T20:36:23.506Z,6.36
2022-11-05T20:38:52.094Z,6.39
2022-11-05T20:41:19.110Z,6.37
2022-11-05T20:43:46.847Z,6.43
2022-11-05T20:46:17.662Z,6.39
2022-11-05T20:48:45.057Z,6.49
2022-11-05T20:51:17.436Z,6.55
2022-11-05T20:53:46.172Z,6.53
2022-11-05T20:56:22.606Z,6.62
2022-11-05T20:58:49.947Z,6.65
2022-11-05T21:01:17.614Z,6.69
2022-11-05T21:03:45.441Z,6.64
2022-11-05T21:06:13.098Z,6.61
2022-11-05T21:08:39.637Z,6.63
2022-11-05T21:11:07.077Z,6.55
2022-11-05T21:13:34.044Z,6.55
2022-11-05T21:16:01.185Z,6.40
2022-11-05T21:18:31.005Z,6.29
2022-11-05T21:20:59.914Z,6.29
2022-11-05T21:23:29.474Z,7.33
2022-11-05T21:25:56.039Z,6.84
2022-11-05T21:28:23.009Z,6.61
2022-11-05T21:30:49.591Z,6.46
2022-11-05T21:33:18.080Z,6.31
2022-11-05T21:35:47.736Z,6.19
2022-11-05T21:38:16.519Z,6.11
2022-11-05T21:40:44.446Z,6.01
2022-11-05T21:43:11.627Z,5.98
2022-11-05T21:45:39.865Z,5.96
2022-11-05T21:48:07.422Z,5.97
2022-11-05T21:50:52.895Z,5.99
2022-11-05T21:53:38.702Z,5.92
2022-11-05T21:56:29.720Z,5.99
2022-11-05T21:59:34.744Z,6.07
2022-11-05T22:02:01.948Z,6.13
2022-11-05T22:04:34.333Z,6.24
2022-11-05T22:07:01.234Z,6.29
2022-11-05T22:09:28.371Z,6.34
2022-11-05T22:11:55.492Z,6.31
2022-11-05T22:14:22.509Z,6.30
2022-11-05T22:16:49.013Z,6.27
2022-11-05T22:19:15.562Z,6.24
2022-11-05T22:21:42.318Z,6.18
2022-11-05T22:24:09.335Z,6.03
2022-11-05T22:26:37.604Z,5.93
2022-11-05T22:29:05.155Z,5.79
2022-11-05T22:31:37.847Z,5.70
2022-11-05T22:34:06.063Z,5.57
2022-11-05T22:36:33.982Z,5.63
2022-11-05T22:39:00.816Z,5.55
2022-11-05T22:41:27.326Z,5.57
2022-11-05T22:43:53.933Z,5.62
2022-11-05T22:46:23.096Z,5.64
2022-11-05T22:48:50.449Z,5.70
2022-11-05T22:51:22.260Z,5.79
2022-11-05T22:53:49.284Z,5.87
2022-11-05T22:56:19.890Z,5.93
2022-11-05T22:58:47.134Z,5.99
2022-11-05T23:01:15.718Z,6.07
2022-11-05T23:03:44.155Z,6.08
2022-11-05T23:06:33.814Z,6.23
2022-11-05T23:09:19.657Z,6.26
2022-11-05T23:11:49.353Z,6.25
2022-11-05T23:14:16.374Z,6.27
2022-11-05T23:17:02.130Z,6.30
2022-11-05T23:19:47.592Z,6.39
2022-11-05T23:22:42.169Z,6.38
2022-11-05T23:25:13.568Z,6.33
2022-11-05T23:27:40.867Z,6.39
2022-11-05T23:30:20.252Z,6.39
2022-11-05T23:32:47.267Z,6.37
2022-11-05T23:35:14.054Z,6.36
2022-11-05T23:37:59.154Z,6.35
2022-11-05T23:40:28.614Z,6.36
2022-11-05T23:43:14.406Z,6.30
2022-11-05T23:45:54.745Z,6.25
2022-11-05T23:48:35.516Z,6.20
2022-11-05T23:51:05.140Z,6.22
2022-11-05T23:53:34.792Z,6.22
2022-11-05T23:56:11.408Z,6.14
2022-11-05T23:58:39.501Z,6.13
